Time;durP1;ratioP1;P1;durP2;ratioP2;P2;SDS_P1;SDS_P2;PMS_P1;PMS_P2;Temp;Humidity;BMP_temperature;BMP_pressure;BME280_temperature;BME280_humidity;BME280_pressure;Samples;Min_cycle;Max_cycle;Signal;HPM_P1;HPM_P2
2022/08/14 00:00:50;;;;;;;1.33;0.85;;;24.00;51.30;;;;;;6219427;28;20037;-68
2022/08/14 00:03:50;;;;;;;0.70;0.70;;;24.00;51.30;;;;;;6242844;28;20106;-68
2022/08/14 00:06:51;;;;;;;0.70;0.70;;;24.00;51.30;;;;;;6237548;28;20032;-68
2022/08/14 00:09:53;;;;;;;0.93;0.82;;;24.00;51.30;;;;;;6219127;28;20128;-68
2022/08/14 00:12:55;;;;;;;0.63;0.60;;;24.00;51.30;;;;;;6229610;28;20037;-68
2022/08/14 00:15:57;;;;;;;0.63;0.63;;;24.00;51.40;;;;;;6219194;28;20489;-68
2022/08/14 00:18:59;;;;;;;0.70;0.70;;;24.00;51.40;;;;;;6241269;28;20026;-69
2022/08/14 00:21:59;;;;;;;0.90;0.70;;;24.00;51.40;;;;;;6238399;28;20112;-68
2022/08/14 00:25:00;;;;;;;0.63;0.63;;;24.00;51.40;;;;;;6218843;28;20107;-68
2022/08/14 00:28:02;;;;;;;0.68;0.68;;;24.00;51.40;;;;;;6232276;28;20033;-68
2022/08/14 00:31:05;;;;;;;0.70;0.70;;;24.00;51.40;;;;;;6243592;28;20029;-68
2022/08/14 00:34:05;;;;;;;0.60;0.60;;;24.00;51.40;;;;;;6222384;28;20041;-68
2022/08/14 00:37:06;;;;;;;0.85;0.82;;;23.90;51.40;;;;;;6223414;28;20092;-69
2022/08/14 00:40:09;;;;;;;0.90;0.80;;;24.00;51.40;;;;;;6243533;28;20021;-68
2022/08/14 00:43:10;;;;;;;0.90;0.70;;;24.00;51.40;;;;;;6232055;28;20041;-69
2022/08/14 00:46:12;;;;;;;0.75;0.75;;;24.00;51.40;;;;;;6223214;28;20523;-68
2022/08/14 00:49:13;;;;;;;0.75;0.73;;;24.00;51.50;;;;;;6243005;28;20025;-68
2022/08/14 00:52:15;;;;;;;0.60;0.60;;;24.00;51.40;;;;;;6244573;28;20030;-68
2022/08/14 00:55:17;;;;;;;0.80;0.80;;;24.00;51.40;;;;;;6223176;28;20036;-68
2022/08/14 00:58:29;;;;;;;0.70;0.70;;;24.00;51.40;;;;;;6234446;28;20028;-67
2022/08/14 01:01:32;;;;;;;0.70;0.70;;;24.00;51.50;;;;;;6226135;28;20034;-68
2022/08/14 01:04:34;;;;;;;1.00;0.82;;;24.00;51.50;;;;;;6239652;28;20113;-68
2022/08/14 01:07:35;;;;;;;0.82;0.70;;;24.00;51.50;;;;;;6242524;28;20022;-68
2022/08/14 01:10:49;;;;;;;0.70;0.70;;;24.00;51.50;;;;;;6227125;28;20021;-68
2022/08/14 01:13:51;;;;;;;0.80;0.80;;;24.00;51.50;;;;;;6232796;28;20481;-68
2022/08/14 01:16:52;;;;;;;0.80;0.80;;;24.00;51.50;;;;;;6221916;28;20049;-68
2022/08/14 01:23:13;;;;;;;0.60;0.60;;;24.00;51.50;;;;;;6240174;28;20050;-68
2022/08/14 01:26:19;;;;;;;1.05;0.80;;;24.00;51.50;;;;;;6222489;28;20022;-68
2022/08/14 01:29:20;;;;;;;0.70;0.70;;;24.00;51.50;;;;;;6238058;28;20394;-68
2022/08/14 01:32:22;;;;;;;0.98;0.85;;;24.00;51.50;;;;;;6246593;28;20032;-68
2022/08/14 01:35:22;;;;;;;0.82;0.70;;;24.00;51.60;;;;;;6223298;28;20033;-68
2022/08/14 01:38:25;;;;;;;0.80;0.80;;;24.00;51.60;;;;;;6228577;28;20025;-68
2022/08/14 01:41:26;;;;;;;0.70;0.70;;;24.00;51.60;;;;;;6246446;28;20045;-68
2022/08/14 01:44:30;;;;;;;0.93;0.80;;;24.00;51.60;;;;;;6232107;28;20021;-68
2022/08/14 01:47:31;;;;;;;0.88;0.75;;;24.00;51.60;;;;;;6221933;28;20026;-68
2022/08/14 01:50:32;;;;;;;0.77;0.77;;;24.00;51.60;;;;;;6244259;28;20112;-68
2022/08/14 01:53:32;;;;;;;0.60;0.60;;;24.00;51.60;;;;;;6240331;28;20121;-68
2022/08/14 01:56:36;;;;;;;0.65;0.60;;;24.00;51.70;;;;;;6220341;28;20019;-69
2022/08/14 01:59:39;;;;;;;0.80;0.75;;;24.00;51.60;;;;;;6235514;28;20036;-68
2022/08/14 02:02:41;;;;;;;0.80;0.80;;;24.00;51.70;;;;;;6206187;28;20088;-68
2022/08/14 02:05:42;;;;;;;0.80;0.73;;;24.00;51.60;;;;;;6240059;28;20523;-67
2022/08/14 02:08:43;;;;;;;0.80;0.80;;;24.00;51.60;;;;;;6240535;28;20022;-68
2022/08/14 02:11:45;;;;;;;0.85;0.68;;;24.00;51.70;;;;;;6235692;28;20591;-68
2022/08/14 02:14:47;;;;;;;0.70;0.70;;;24.00;51.70;;;;;;6232769;28;20034;-68
2022/08/14 02:17:50;;;;;;;0.80;0.80;;;24.00;51.70;;;;;;6220805;28;20034;-68
2022/08/14 02:20:51;;;;;;;0.88;0.80;;;24.00;51.70;;;;;;6241714;28;20029;-68
2022/08/14 02:23:53;;;;;;;0.70;0.70;;;24.00;51.70;;;;;;6240888;28;20500;-68
2022/08/14 02:26:56;;;;;;;0.93;0.75;;;24.00;51.70;;;;;;6221108;28;20492;-68
2022/08/14 02:29:57;;;;;;;1.38;0.90;;;24.00;51.80;;;;;;6233214;28;20025;-68
2022/08/14 02:32:58;;;;;;;0.93;0.80;;;24.00;51.70;;;;;;6245565;28;20487;-68
2022/08/14 02:35:58;;;;;;;0.93;0.80;;;23.80;50.00;;;;;;6225199;28;20065;-69
2022/08/14 02:38:59;;;;;;;0.80;0.80;;;23.90;49.10;;;;;;6223844;28;20477;-68
2022/08/14 02:42:00;;;;;;;0.80;0.80;;;24.00;48.40;;;;;;6245161;28;20033;-68
2022/08/14 02:45:00;;;;;;;0.90;0.77;;;24.10;48.00;;;;;;6233263;28;20026;-68
2022/08/14 02:48:05;;;;;;;0.60;0.60;;;24.20;47.70;;;;;;6220587;28;20045;-68
2022/08/14 02:51:08;;;;;;;;;;;24.30;47.60;;;;;;6239971;28;20029;-68
2022/08/14 02:54:08;;;;;;;1.30;0.70;;;24.40;47.40;;;;;;6242356;28;19975;-68
2022/08/14 02:57:09;;;;;;;0.73;0.73;;;24.40;47.30;;;;;;6220606;28;20034;-68
2022/08/14 03:00:12;;;;;;;0.73;0.73;;;24.40;47.10;;;;;;6230563;28;20033;-68
2022/08/14 03:03:12;;;;;;;1.02;0.90;;;24.50;47.00;;;;;;6196280;28;20033;-68
2022/08/14 03:06:14;;;;;;;2.90;0.60;;;24.50;46.90;;;;;;6230802;28;20026;-68
2022/08/14 03:09:15;;;;;;;0.75;0.73;;;24.50;46.80;;;;;;6243706;28;20028;-68
2022/08/14 03:12:16;;;;;;;0.80;0.60;;;24.60;46.70;;;;;;6238958;28;20017;-68
2022/08/14 03:15:17;;;;;;;0.70;0.70;;;24.60;46.70;;;;;;6235601;28;20029;-68
2022/08/14 03:18:18;;;;;;;0.70;0.70;;;24.60;46.60;;;;;;6220157;28;20636;-68
2022/08/14 03:21:22;;;;;;;0.45;0.45;;;24.60;46.50;;;;;;6236417;28;20033;-67
2022/08/14 03:24:22;;;;;;;0.80;0.80;;;24.60;46.40;;;;;;6244336;28;20060;-67
2022/08/14 03:27:23;;;;;;;0.65;0.60;;;24.60;46.30;;;;;;6219750;28;20046;-68
2022/08/14 03:30:24;;;;;;;0.50;0.50;;;24.60;46.30;;;;;;6227529;28;20030;-68
2022/08/14 03:33:26;;;;;;;0.85;0.80;;;24.60;46.20;;;;;;6243999;28;20116;-69
2022/08/14 03:36:31;;;;;;;1.00;0.80;;;24.60;46.10;;;;;;6228788;28;20449;-68
2022/08/14 03:39:31;;;;;;;0.57;0.57;;;24.60;46.10;;;;;;6220001;28;20191;-68
2022/08/14 03:42:34;;;;;;;0.80;0.80;;;24.60;46.70;;;;;;6243261;28;20025;-68
2022/08/14 03:45:37;;;;;;;0.70;0.70;;;24.60;46.10;;;;;;6236887;28;20049;-67
2022/08/14 03:48:39;;;;;;;0.70;0.60;;;24.70;46.00;;;;;;6219776;28;20022;-68
2022/08/14 03:51:39;;;;;;;0.70;0.68;;;24.60;45.90;;;;;;6234760;28;20025;-68
2022/08/14 03:54:40;;;;;;;0.75;0.70;;;24.70;46.00;;;;;;6244090;28;20164;-68
2022/08/14 03:57:42;;;;;;;0.77;0.77;;;24.70;45.80;;;;;;6220857;28;20108;-68
2022/08/14 04:00:44;;;;;;;0.65;0.65;;;24.70;45.80;;;;;;6217419;28;20101;-68
2022/08/14 04:03:46;;;;;;;0.68;0.68;;;24.70;45.80;;;;;;6195361;28;20038;-68
2022/08/14 04:06:47;;;;;;;0.63;0.63;;;24.70;45.80;;;;;;6223187;28;20022;-67
2022/08/14 04:09:48;;;;;;;0.65;0.65;;;24.70;45.80;;;;;;6244088;28;20431;-69
2022/08/14 04:12:49;;;;;;;0.73;0.73;;;24.70;45.60;;;;;;6242177;28;20037;-68
2022/08/14 04:15:49;;;;;;;0.77;0.77;;;24.70;45.60;;;;;;6238839;28;20022;-68
2022/08/14 04:18:53;;;;;;;0.98;0.80;;;24.70;45.60;;;;;;6221247;28;20028;-68
2022/08/14 04:21:53;;;;;;;0.95;0.80;;;24.70;45.60;;;;;;6236739;28;20025;-68
2022/08/14 04:24:54;;;;;;;0.98;0.88;;;24.70;45.50;;;;;;6248458;28;20053;-68
2022/08/14 04:27:55;;;;;;;0.80;0.80;;;24.70;45.60;;;;;;6227564;28;20096;-68
2022/08/14 04:30:56;;;;;;;0.63;0.63;;;24.70;45.50;;;;;;6228069;28;20061;-68
2022/08/14 04:33:57;;;;;;;0.70;0.57;;;24.70;45.40;;;;;;6247993;28;20026;-68
2022/08/14 04:43:39;;;;;;;0.80;0.70;;;24.70;45.30;;;;;;6247750;28;20029;-68
2022/08/14 04:46:39;;;;;;;0.63;0.55;;;24.70;45.20;;;;;;6239921;28;20018;-67
2022/08/14 04:49:41;;;;;;;0.60;0.60;;;24.80;45.30;;;;;;6223586;28;20022;-68
2022/08/14 04:52:42;;;;;;;0.60;0.60;;;24.80;45.30;;;;;;6238329;28;20551;-68
2022/08/14 04:55:48;;;;;;;0.90;0.68;;;24.80;45.30;;;;;;6247907;28;20439;-68
2022/08/14 04:58:51;;;;;;;1.10;1.00;;;24.80;45.70;;;;;;6223501;28;20052;-67
2022/08/14 05:01:52;;;;;;;1.25;0.80;;;24.80;45.10;;;;;;6228155;28;20087;-67
2022/08/14 05:04:53;;;;;;;0.60;0.60;;;24.80;45.10;;;;;;6247420;28;20037;-67
2022/08/14 05:07:54;;;;;;;0.77;0.70;;;24.80;45.10;;;;;;6232397;28;20022;-68
2022/08/14 05:10:58;;;;;;;0.88;0.70;;;24.80;45.10;;;;;;6230637;28;20036;-67
2022/08/14 05:14:00;;;;;;;0.73;0.70;;;24.80;45.10;;;;;;6224073;28;20034;-68
2022/08/14 05:17:01;;;;;;;0.70;0.70;;;24.80;45.00;;;;;;6229145;28;20116;-68
2022/08/14 05:20:01;;;;;;;0.60;0.60;;;24.80;45.00;;;;;;6246033;28;20063;-67
2022/08/14 05:23:02;;;;;;;0.70;0.70;;;24.80;44.90;;;;;;6232495;28;20449;-67
2022/08/14 05:26:11;;;;;;;0.68;0.60;;;24.80;45.00;;;;;;6222609;28;20040;-68
2022/08/14 05:29:12;;;;;;;0.80;0.80;;;24.80;44.90;;;;;;6245387;28;20143;-68
2022/08/14 05:32:14;;;;;;;0.52;0.52;;;24.80;44.80;;;;;;6240964;28;20026;-68
2022/08/14 05:35:15;;;;;;;0.82;0.70;;;24.80;44.90;;;;;;6222380;28;20476;-68
2022/08/14 05:38:18;;;;;;;0.73;0.73;;;24.80;44.90;;;;;;6235720;28;20042;-68
2022/08/14 05:41:19;;;;;;;0.60;0.60;;;24.80;44.90;;;;;;6246961;28;20021;-68
2022/08/14 05:44:20;;;;;;;1.45;0.77;;;24.80;44.90;;;;;;6224605;28;20414;-68
2022/08/14 05:47:20;;;;;;;0.60;0.52;;;24.80;44.80;;;;;;6226828;28;20408;-68
2022/08/14 05:50:21;;;;;;;0.50;0.50;;;24.80;44.80;;;;;;6246640;28;20500;-68
2022/08/14 05:53:24;;;;;;;0.70;0.70;;;24.80;44.90;;;;;;6233632;28;20088;-68
2022/08/14 05:56:25;;;;;;;1.00;0.88;;;24.80;45.00;;;;;;6221784;28;20392;-68
2022/08/14 05:59:25;;;;;;;0.75;0.75;;;24.80;45.00;;;;;;6242217;28;20045;-67
2022/08/14 06:02:26;;;;;;;0.75;0.55;;;24.80;45.00;;;;;;6216865;28;20036;-67
2022/08/14 06:05:27;;;;;;;1.20;0.77;;;24.80;45.00;;;;;;6246312;28;20017;-68
2022/08/14 06:08:30;;;;;;;0.70;0.70;;;24.80;44.90;;;;;;6234234;28;20072;-67
2022/08/14 06:11:31;;;;;;;0.60;0.60;;;24.80;45.00;;;;;;6234327;28;20021;-68
2022/08/14 06:14:32;;;;;;;0.70;0.68;;;24.80;44.90;;;;;;6226231;28;20604;-68
2022/08/14 06:17:55;;;;;;;0.60;0.60;;;24.80;44.90;;;;;;6223507;28;20122;-67
2022/08/14 06:20:55;;;;;;;0.80;0.70;;;24.70;44.90;;;;;;6245967;28;20384;-68
2022/08/14 06:23:56;;;;;;;1.13;0.75;;;24.70;44.90;;;;;;6231971;28;20049;-68
2022/08/14 06:26:57;;;;;;;0.70;0.60;;;24.80;45.00;;;;;;6221221;28;20096;-68
2022/08/14 06:29:57;;;;;;;0.80;0.57;;;24.80;44.90;;;;;;6241559;28;20036;-67
2022/08/14 06:32:58;;;;;;;0.70;0.70;;;24.80;44.80;;;;;;6241685;28;20476;-68
2022/08/14 06:35:59;;;;;;;0.68;0.63;;;24.70;45.30;;;;;;6221176;28;20053;-68
2022/08/14 06:38:59;;;;;;;0.80;0.52;;;24.60;46.60;;;;;;6232356;28;20022;-68
2022/08/14 06:42:00;;;;;;;0.60;0.60;;;24.40;46.10;;;;;;6244571;28;20021;-67
2022/08/14 06:45:00;;;;;;;0.60;0.60;;;24.40;46.90;;;;;;6226056;28;20097;-68
2022/08/14 06:48:02;;;;;;;0.98;0.70;;;24.30;47.20;;;;;;6222458;28;20053;-68
2022/08/14 06:51:02;;;;;;;0.63;0.63;;;24.30;47.90;;;;;;6245338;28;20018;-68
2022/08/14 06:54:03;;;;;;;0.55;0.55;;;24.30;47.60;;;;;;6234786;28;20107;-68
2022/08/14 06:57:04;;;;;;;0.80;0.80;;;24.20;47.50;;;;;;6219501;28;20049;-68
2022/08/14 07:00:10;;;;;;;1.10;0.77;;;24.20;47.70;;;;;;6237705;28;20091;-67
2022/08/14 07:06:30;;;;;;;0.70;0.60;;;24.20;48.20;;;;;;6244497;28;20033;-68
2022/08/14 07:09:30;;;;;;;0.60;0.60;;;24.20;48.30;;;;;;6232567;28;20613;-68
2022/08/14 07:12:31;;;;;;;0.55;0.52;;;24.20;48.50;;;;;;6241121;28;20555;-68
2022/08/14 07:15:32;;;;;;;0.95;0.73;;;24.10;48.80;;;;;;6225046;28;20029;-68
2022/08/14 07:18:34;;;;;;;0.70;0.70;;;24.10;48.80;;;;;;6222375;28;20645;-68
2022/08/14 07:21:36;;;;;;;0.70;0.70;;;24.10;48.90;;;;;;6244436;28;20022;-67
2022/08/14 07:24:36;;;;;;;0.55;0.50;;;24.10;49.00;;;;;;6233982;28;20050;-67
2022/08/14 07:27:39;;;;;;;0.82;0.80;;;24.10;49.10;;;;;;6220162;28;20093;-68
2022/08/14 07:30:40;;;;;;;0.50;0.50;;;24.10;49.20;;;;;;6237983;28;20025;-68
2022/08/14 07:33:44;;;;;;;0.70;0.70;;;24.10;49.20;;;;;;6242469;28;20025;-68
2022/08/14 07:36:45;;;;;;;0.77;0.77;;;24.10;49.30;;;;;;6220018;28;20093;-67
2022/08/14 07:39:45;;;;;;;0.63;0.63;;;24.10;49.40;;;;;;6229072;28;20021;-68
2022/08/14 07:42:46;;;;;;;0.80;0.80;;;24.10;49.40;;;;;;6244449;28;20026;-68
2022/08/14 07:45:47;;;;;;;0.80;0.80;;;24.00;49.30;;;;;;6226640;28;20491;-67
2022/08/14 07:48:47;;;;;;;0.65;0.57;;;24.00;49.50;;;;;;6219955;28;20385;-68
2022/08/14 07:51:48;;;;;;;0.70;0.70;;;24.00;49.40;;;;;;6244364;28;20030;-68
2022/08/14 07:54:49;;;;;;;0.63;0.60;;;24.00;49.40;;;;;;6241156;28;20028;-68
2022/08/14 07:57:50;;;;;;;0.68;0.60;;;24.00;49.50;;;;;;6224788;28;20504;-68
2022/08/14 08:00:54;;;;;;;0.50;0.50;;;24.00;49.40;;;;;;6229924;28;20022;-68
2022/08/14 08:03:58;;;;;;;0.68;0.65;;;24.00;49.50;;;;;;6199981;28;20026;-68
2022/08/14 08:06:59;;;;;;;0.68;0.60;;;24.00;50.20;;;;;;6248397;28;20029;-68
2022/08/14 08:10:29;;;;;;;0.60;0.60;;;24.00;49.50;;;;;;6241452;28;20026;-69
2022/08/14 08:13:28;;;;;;;0.80;0.80;;;24.00;49.60;;;;;;6248290;28;20029;-68
2022/08/14 08:16:30;;;;;;;0.70;0.70;;;24.10;49.90;;;;;;6229680;28;20032;-67
2022/08/14 08:19:31;;;;;;;0.88;0.80;;;24.10;49.70;;;;;;6226078;28;20032;-67
2022/08/14 08:22:31;;;;;;;0.90;0.70;;;24.10;49.70;;;;;;6248086;28;20391;-67
2022/08/14 08:25:34;;;;;;;1.95;0.70;;;24.10;49.70;;;;;;6237503;28;20058;-67
2022/08/14 08:28:35;;;;;;;0.98;0.60;;;24.10;49.70;;;;;;6223584;28;20104;-67
2022/08/14 08:31:48;;;;;;;1.42;0.80;;;24.00;49.60;;;;;;6240707;28;20426;-67
2022/08/14 08:34:48;;;;;;;0.80;0.80;;;24.00;49.70;;;;;;6244879;28;20451;-67
2022/08/14 08:37:52;;;;;;;0.85;0.63;;;24.00;49.70;;;;;;6223994;28;20069;-67
2022/08/14 08:40:57;;;;;;;0.73;0.70;;;24.00;49.70;;;;;;6233880;28;20365;-67
2022/08/14 08:44:05;;;;;;;4.60;0.70;;;24.00;49.70;;;;;;6248126;28;20049;-67
2022/08/14 08:47:06;;;;;;;2.80;0.70;;;24.00;49.80;;;;;;6228391;28;20384;-67
2022/08/14 08:50:19;;;;;;;2.65;0.60;;;24.00;49.80;;;;;;6226571;28;20083;-67
2022/08/14 08:53:20;;;;;;;0.65;0.55;;;24.00;49.80;;;;;;6248323;28;20029;-67
2022/08/14 08:56:20;;;;;;;1.15;0.70;;;24.00;49.80;;;;;;6235153;28;20085;-67
2022/08/14 08:59:31;;;;;;;0.60;0.50;;;24.00;49.90;;;;;;6223317;28;20030;-67
2022/08/14 09:02:32;;;;;;;0.90;0.70;;;24.00;49.90;;;;;;6206474;28;20646;-67
2022/08/14 09:05:35;;;;;;;0.65;0.60;;;24.00;49.90;;;;;;6206873;28;20017;-67
2022/08/14 09:08:36;;;;;;;0.57;0.52;;;24.00;49.90;;;;;;6246295;28;20048;-67
2022/08/14 09:11:37;;;;;;;1.00;0.80;;;24.00;50.00;;;;;;6246251;28;20034;-67
2022/08/14 09:14:38;;;;;;;0.57;0.57;;;24.00;50.00;;;;;;6245850;28;20515;-67
2022/08/14 09:17:40;;;;;;;1.30;0.70;;;24.00;50.00;;;;;;6227208;28;20105;-67
2022/08/14 09:20:43;;;;;;;0.73;0.73;;;24.00;50.00;;;;;;6226301;28;20087;-67
2022/08/14 09:23:44;;;;;;;0.60;0.60;;;24.00;50.00;;;;;;6246802;28;20037;-67
2022/08/14 09:26:45;;;;;;;2.33;0.88;;;24.00;50.00;;;;;;6235400;28;20508;-67
2022/08/14 09:29:46;;;;;;;0.75;0.68;;;24.00;50.00;;;;;;6222247;28;20029;-67
2022/08/14 09:33:02;;;;;;;1.30;0.73;;;24.00;50.00;;;;;;6241681;28;20030;-67
2022/08/14 09:36:32;;;;;;;0.73;0.60;;;24.00;50.10;;;;;;6242456;28;20092;-67
2022/08/14 09:39:40;;;;;;;0.90;0.70;;;24.00;50.10;;;;;;6222073;28;20393;-67
2022/08/14 09:43:01;;;;;;;0.80;0.63;;;24.00;50.10;;;;;;6239327;28;20025;-67
2022/08/14 09:46:06;;;;;;;0.65;0.65;;;24.00;50.10;;;;;;6243640;28;20036;-68
2022/08/14 09:49:07;;;;;;;1.00;0.73;;;24.00;50.10;;;;;;6222074;28;20070;-67
2022/08/14 09:52:13;;;;;;;0.88;0.75;;;23.90;50.10;;;;;;6232976;28;20676;-67
2022/08/14 09:55:22;;;;;;;1.10;0.60;;;24.00;50.20;;;;;;6246200;28;20133;-67
2022/08/14 09:58:33;;;;;;;0.85;0.60;;;23.90;50.10;;;;;;6225717;28;20049;-68
2022/08/14 10:01:39;;;;;;;0.63;0.63;;;23.90;50.10;;;;;;6226594;28;20029;-67
2022/08/14 10:04:39;;;;;;;1.17;0.70;;;23.90;50.10;;;;;;6246319;28;20099;-67
2022/08/14 10:07:49;;;;;;;0.65;0.60;;;23.90;50.20;;;;;;6232422;28;20029;-67
2022/08/14 10:10:50;;;;;;;1.02;0.70;;;23.90;50.20;;;;;;6228392;28;20017;-67
2022/08/14 10:13:57;;;;;;;0.60;0.60;;;23.90;50.20;;;;;;6223589;28;20042;-67
2022/08/14 10:16:58;;;;;;;0.88;0.77;;;23.90;50.20;;;;;;6226561;28;20030;-67
2022/08/14 10:19:59;;;;;;;0.77;0.65;;;23.90;50.30;;;;;;6245896;28;20033;-67
2022/08/14 10:23:13;;;;;;;0.80;0.60;;;23.90;50.30;;;;;;6231465;28;20042;-67
2022/08/14 10:26:18;;;;;;;0.70;0.60;;;23.90;50.30;;;;;;6221137;28;20033;-67
2022/08/14 10:29:33;;;;;;;1.00;0.70;;;23.90;50.30;;;;;;6237385;28;20091;-67
2022/08/14 10:32:43;;;;;;;0.68;0.63;;;23.90;50.30;;;;;;6229940;28;20035;-67
2022/08/14 10:35:44;;;;;;;0.60;0.60;;;23.90;50.30;;;;;;6245400;28;20064;-67
2022/08/14 10:38:57;;;;;;;0.82;0.73;;;23.90;50.40;;;;;;6227207;28;20030;-67
2022/08/14 10:42:06;;;;;;;0.80;0.80;;;23.90;50.30;;;;;;6223609;28;20472;-67
2022/08/14 10:45:19;;;;;;;0.70;0.60;;;23.90;50.40;;;;;;6245256;28;20388;-67
2022/08/14 10:48:20;;;;;;;0.63;0.60;;;23.90;50.40;;;;;;6231661;28;20053;-67
2022/08/14 10:51:28;;;;;;;0.77;0.68;;;23.90;50.40;;;;;;6220374;28;20380;-68
2022/08/14 10:54:36;;;;;;;0.80;0.60;;;23.90;50.40;;;;;;6242589;28;20691;-67
2022/08/14 10:57:47;;;;;;;0.85;0.77;;;23.90;50.40;;;;;;6238619;28;20057;-67
2022/08/14 11:00:56;;;;;;;0.60;0.60;;;23.90;50.40;;;;;;6220383;28;20084;-67
2022/08/14 11:03:57;;;;;;;0.65;0.60;;;23.90;50.40;;;;;;6236597;28;20021;-67
2022/08/14 11:06:58;;;;;;;0.70;0.70;;;23.90;50.50;;;;;;6244798;28;20036;-67
2022/08/14 11:10:02;;;;;;;0.65;0.65;;;23.90;50.40;;;;;;6220733;28;20065;-67
2022/08/14 11:13:03;;;;;;;0.60;0.60;;;23.90;50.50;;;;;;6237135;28;20034;-67
2022/08/14 11:16:04;;;;;;;0.70;0.70;;;23.90;50.50;;;;;;6219951;28;20045;-67
2022/08/14 11:19:06;;;;;;;0.70;0.60;;;23.90;50.50;;;;;;6235473;28;20022;-67
2022/08/14 11:22:07;;;;;;;0.57;0.57;;;23.90;50.50;;;;;;6244586;28;20476;-67
2022/08/14 11:25:12;;;;;;;1.25;0.70;;;23.90;50.50;;;;;;6221036;28;20054;-67
2022/08/14 11:28:13;;;;;;;;;;;23.90;50.50;;;;;;6226974;28;20033;-67
2022/08/14 11:31:19;;;;;;;0.88;0.70;;;23.90;50.50;;;;;;6244307;28;19912;-67
2022/08/14 11:34:20;;;;;;;0.80;0.80;;;23.90;50.50;;;;;;6229089;28;20654;-67
2022/08/14 11:37:21;;;;;;;0.90;0.80;;;23.90;50.60;;;;;;6219694;28;20038;-67
2022/08/14 11:40:23;;;;;;;0.65;0.65;;;23.90;50.60;;;;;;6242907;28;20041;-67
2022/08/14 11:43:25;;;;;;;0.70;0.70;;;23.90;50.60;;;;;;6237854;28;20022;-68
2022/08/14 11:46:27;;;;;;;0.70;0.70;;;23.90;50.60;;;;;;6219716;28;20495;-67
2022/08/14 11:49:30;;;;;;;0.65;0.65;;;23.90;50.60;;;;;;6233745;28;20031;-67
2022/08/14 11:52:36;;;;;;;0.75;0.60;;;23.90;50.60;;;;;;6244239;28;20026;-67
2022/08/14 11:55:37;;;;;;;0.80;0.60;;;23.80;50.60;;;;;;6220719;28;20034;-67
2022/08/14 11:58:38;;;;;;;0.75;0.70;;;23.90;50.60;;;;;;6225507;28;20702;-67
2022/08/14 12:01:40;;;;;;;0.93;0.82;;;23.80;50.60;;;;;;6226312;28;20552;-67
2022/08/14 12:04:51;;;;;;;0.75;0.60;;;23.90;50.70;;;;;;6233739;28;20021;-67
2022/08/14 12:07:53;;;;;;;0.60;0.60;;;23.90;50.70;;;;;;6243889;28;20017;-67
2022/08/14 12:10:56;;;;;;;0.93;0.52;;;23.80;50.70;;;;;;6228048;28;20041;-68
2022/08/14 12:14:07;;;;;;;0.60;0.60;;;23.80;50.60;;;;;;6237285;28;20026;-67
2022/08/14 12:17:08;;;;;;;0.70;0.52;;;23.80;50.70;;;;;;6219234;28;20050;-67
2022/08/14 12:20:09;;;;;;;0.63;0.63;;;23.80;50.70;;;;;;6235269;28;20022;-67
2022/08/14 12:23:24;;;;;;;0.80;0.73;;;23.80;50.70;;;;;;6227690;28;20149;-67
2022/08/14 12:26:24;;;;;;;0.75;0.75;;;23.80;50.70;;;;;;6193582;28;20050;-67
2022/08/14 12:29:25;;;;;;;0.80;0.75;;;23.80;50.70;;;;;;6211721;28;20415;-67
2022/08/14 12:32:27;;;;;;;0.93;0.70;;;23.80;50.70;;;;;;6243658;28;20025;-67
2022/08/14 12:35:37;;;;;;;0.70;0.68;;;23.80;50.70;;;;;;6227455;28;20032;-68
2022/08/14 12:38:44;;;;;;;0.82;0.82;;;23.80;50.70;;;;;;6219706;28;20108;-67
2022/08/14 12:41:54;;;;;;;0.60;0.60;;;23.80;50.70;;;;;;6247861;28;20036;-67
2022/08/14 12:44:58;;;;;;;0.60;0.60;;;23.80;50.70;;;;;;6237768;28;20369;-67
2022/08/14 12:48:02;;;;;;;0.60;0.60;;;23.80;50.70;;;;;;6223361;28;20461;-67
2022/08/14 12:51:16;;;;;;;0.70;0.65;;;23.80;50.70;;;;;;6242454;28;20053;-67
2022/08/14 12:54:18;;;;;;;0.90;0.80;;;23.80;50.80;;;;;;6243658;28;20037;-67
2022/08/14 12:57:18;;;;;;;0.57;0.57;;;23.80;50.80;;;;;;6223687;28;20113;-67
2022/08/14 13:00:24;;;;;;;0.63;0.60;;;23.80;50.80;;;;;;6232990;28;20025;-67
2022/08/14 13:03:26;;;;;;;0.80;0.80;;;23.80;50.80;;;;;;6199000;28;20019;-67
2022/08/14 13:06:27;;;;;;;0.63;0.63;;;23.80;50.80;;;;;;6235496;28;20029;-67
2022/08/14 13:09:28;;;;;;;0.50;0.50;;;23.80;50.80;;;;;;6244151;28;20049;-67
2022/08/14 13:12:32;;;;;;;0.77;0.75;;;23.80;50.80;;;;;;6243268;28;20041;-67
2022/08/14 13:15:32;;;;;;;0.60;0.60;;;23.80;50.80;;;;;;6235902;28;20065;-67
2022/08/14 13:18:36;;;;;;;0.68;0.68;;;23.80;50.80;;;;;;6222689;28;20377;-67
2022/08/14 13:21:42;;;;;;;0.68;0.68;;;23.80;50.80;;;;;;6242202;28;20025;-67
2022/08/14 13:24:43;;;;;;;0.60;0.55;;;23.80;50.90;;;;;;6210479;28;20053;-69
2022/08/14 13:27:45;;;;;;;0.98;0.80;;;23.80;51.00;;;;;;6245187;28;20102;-67
2022/08/14 13:30:46;;;;;;;2.10;0.80;;;23.90;53.00;;;;;;6227933;28;20052;-66
2022/08/14 13:33:47;;;;;;;0.88;0.80;;;24.00;53.00;;;;;;6210539;28;20496;-66
2022/08/14 13:36:49;;;;;;;1.50;0.85;;;24.00;53.00;;;;;;6226969;28;20022;-66
2022/08/14 13:39:52;;;;;;;0.70;0.70;;;23.90;52.20;;;;;;6222655;28;20022;-67
2022/08/14 13:42:54;;;;;;;3.72;0.70;;;23.90;52.00;;;;;;6242499;28;20105;-68
2022/08/14 13:45:55;;;;;;;2.55;1.00;;;23.90;52.40;;;;;;6235161;28;20128;-68
2022/08/14 13:48:56;;;;;;;2.80;0.90;;;24.00;52.80;;;;;;6223438;28;20025;-67
2022/08/14 13:52:00;;;;;;;1.25;0.70;;;24.00;52.20;;;;;;6227030;28;20034;-67
2022/08/14 13:55:03;;;;;;;3.03;1.00;;;24.00;51.90;;;;;;6229904;28;20183;-67
2022/08/14 13:58:05;;;;;;;1.45;0.93;;;24.00;52.00;;;;;;6235944;28;20066;-68
2022/08/14 14:01:05;;;;;;;2.13;0.82;;;23.90;51.70;;;;;;6230331;28;20022;-67
2022/08/14 14:04:11;;;;;;;1.58;1.00;;;23.90;52.40;;;;;;6222979;28;20029;-67
2022/08/14 14:07:14;;;;;;;1.70;0.90;;;24.00;52.30;;;;;;6226648;28;20388;-67
2022/08/14 14:10:20;;;;;;;1.40;1.10;;;24.00;51.80;;;;;;6230432;28;20522;-68
2022/08/14 14:13:21;;;;;;;1.73;0.90;;;24.00;52.10;;;;;;6219855;28;20026;-67
2022/08/14 14:16:22;;;;;;;1.10;1.00;;;24.00;52.10;;;;;;6230676;28;20026;-68
2022/08/14 14:19:24;;;;;;;3.35;1.33;;;24.00;51.90;;;;;;6223033;28;20029;-68
2022/08/14 14:22:26;;;;;;;3.92;1.00;;;24.00;51.90;;;;;;6226861;28;20397;-68
2022/08/14 14:25:27;;;;;;;2.50;1.40;;;24.00;51.80;;;;;;6230362;28;20135;-67
2022/08/14 14:28:30;;;;;;;1.52;1.08;;;24.00;51.70;;;;;;6232244;28;20064;-67
2022/08/14 14:31:31;;;;;;;1.98;1.20;;;24.00;51.70;;;;;;6230339;28;20030;-67
2022/08/14 14:34:36;;;;;;;1.48;1.00;;;24.00;51.70;;;;;;6222688;28;20026;-67
2022/08/14 14:37:42;;;;;;;1.92;1.20;;;24.00;51.70;;;;;;6238919;28;20377;-67
2022/08/14 14:40:48;;;;;;;3.72;1.30;;;24.00;51.60;;;;;;6242675;28;20061;-67
2022/08/14 14:43:50;;;;;;;4.88;1.50;;;24.00;51.60;;;;;;6219378;28;20056;-68
2022/08/14 14:46:51;;;;;;;1.50;1.20;;;24.00;51.60;;;;;;6230571;28;20072;-67
2022/08/14 14:49:52;;;;;;;1.35;1.15;;;24.00;51.60;;;;;;6222925;28;20026;-67
2022/08/14 14:52:53;;;;;;;3.42;1.27;;;24.00;51.60;;;;;;6226170;28;20380;-68
2022/08/14 14:55:55;;;;;;;2.83;1.23;;;24.00;51.60;;;;;;6230549;28;20029;-68
2022/08/14 14:58:56;;;;;;;3.03;1.50;;;24.00;51.60;;;;;;6219016;28;20038;-67
2022/08/14 15:02:05;;;;;;;1.83;1.20;;;24.00;51.60;;;;;;6201723;28;20876;-67
2022/08/14 15:05:07;;;;;;;1.35;0.98;;;24.00;51.60;;;;;;6202700;28;20516;-69
2022/08/14 15:08:08;;;;;;;2.72;1.15;;;24.00;51.60;;;;;;6209414;28;20848;-67
2022/08/14 15:11:08;;;;;;;2.28;1.27;;;24.00;51.60;;;;;;6194692;28;20033;-68
2022/08/14 15:14:09;;;;;;;1.92;1.20;;;24.00;51.60;;;;;;6243392;28;20038;-68
2022/08/14 15:17:10;;;;;;;2.58;1.25;;;24.00;51.50;;;;;;6234561;28;20029;-68
2022/08/14 15:20:14;;;;;;;5.35;1.20;;;24.00;51.40;;;;;;6221652;28;20030;-68
2022/08/14 15:23:15;;;;;;;2.58;1.00;;;24.00;51.40;;;;;;6226574;28;20100;-68
2022/08/14 15:26:15;;;;;;;2.78;1.10;;;24.00;51.40;;;;;;6212794;28;20025;-67
2022/08/14 15:29:16;;;;;;;1.63;1.20;;;24.00;51.50;;;;;;6239216;28;20834;-68
2022/08/14 15:32:16;;;;;;;1.85;1.13;;;24.00;51.50;;;;;;6227972;28;20097;-68
2022/08/14 15:35:17;;;;;;;1.75;1.10;;;24.00;52.30;;;;;;6218933;28;20056;-68
2022/08/14 15:38:18;;;;;;;2.72;1.30;;;24.00;51.60;;;;;;6226845;28;20022;-67
2022/08/14 15:41:18;;;;;;;3.00;1.40;;;24.00;51.60;;;;;;6225327;28;20029;-68
2022/08/14 15:44:19;;;;;;;1.70;1.10;;;24.00;53.10;;;;;;6220825;28;20030;-68
2022/08/14 15:47:21;;;;;;;2.00;1.35;;;24.00;52.40;;;;;;6227438;28;20014;-69
2022/08/14 15:50:23;;;;;;;2.55;1.50;;;24.00;51.90;;;;;;6217590;28;20480;-69
2022/08/14 15:53:24;;;;;;;3.00;1.15;;;24.00;51.90;;;;;;6226465;28;20029;-68
2022/08/14 15:56:24;;;;;;;1.52;1.20;;;24.00;51.70;;;;;;6223462;28;20066;-68
2022/08/14 15:59:26;;;;;;;5.13;1.30;;;24.10;52.30;;;;;;6220499;28;20072;-69
2022/08/14 16:02:27;;;;;;;2.72;1.35;;;24.10;52.20;;;;;;6221247;28;20025;-69
2022/08/14 16:05:27;;;;;;;1.70;1.35;;;24.10;52.10;;;;;;6242578;28;20022;-69